createdAt,value
2023-05-19T00:01:38.137Z,13.47
2023-05-19T00:04:40.978Z,13.45
2023-05-19T00:07:44.135Z,13.44
2023-05-19T00:10:46.564Z,13.43
2023-05-19T00:13:49.688Z,13.50
2023-05-19T00:16:51.642Z,13.31
2023-05-19T00:19:54.792Z,13.45
2023-05-19T00:22:56.539Z,13.51
2023-05-19T00:25:58.332Z,13.52
2023-05-19T00:29:00.102Z,13.51
2023-05-19T00:32:01.953Z,13.50
2023-05-19T00:35:03.865Z,13.43
2023-05-19T00:38:06.744Z,13.50
2023-05-19T00:41:09.017Z,13.50
2023-05-19T00:44:10.876Z,13.45
2023-05-19T00:47:12.737Z,13.48
2023-05-19T00:50:14.517Z,13.44
2023-05-19T00:53:17.794Z,13.48
2023-05-19T00:56:20.116Z,13.46
2023-05-19T00:59:21.967Z,13.47
2023-05-19T01:02:24.069Z,13.47
2023-05-19T01:05:25.965Z,13.47
2023-05-19T01:08:29.001Z,13.42
2023-05-19T01:11:30.814Z,13.40
2023-05-19T01:14:32.613Z,13.39
2023-05-19T01:17:54.704Z,13.35
2023-05-19T01:21:17.128Z,13.33
2023-05-19T01:24:22.902Z,13.26
2023-05-19T01:27:43.663Z,13.28
2023-05-19T01:30:49.136Z,13.29
2023-05-19T01:33:53.981Z,13.32
2023-05-19T01:36:56.160Z,13.27
2023-05-19T01:39:57.939Z,13.28
2023-05-19T01:43:01.105Z,13.29
2023-05-19T01:46:03.291Z,13.33
2023-05-19T01:49:06.490Z,13.36
2023-05-19T01:52:08.340Z,13.36
2023-05-19T01:55:10.386Z,13.36
2023-05-19T01:58:15.049Z,13.36
2023-05-19T02:01:28.150Z,13.35
2023-05-19T02:04:56.352Z,13.30
2023-05-19T02:08:05.158Z,13.27
2023-05-19T02:11:16.165Z,13.21
2023-05-19T02:14:26.125Z,13.18
2023-05-19T02:17:29.559Z,13.17
2023-05-19T02:20:32.074Z,13.11
2023-05-19T02:23:34.039Z,13.01
2023-05-19T02:26:35.768Z,12.96
2023-05-19T02:29:37.631Z,12.94
2023-05-19T02:32:39.608Z,12.90
2023-05-19T02:35:41.438Z,12.83
2023-05-19T02:38:43.297Z,12.83
2023-05-19T02:41:45.133Z,12.77
2023-05-19T02:44:46.942Z,12.66
2023-05-19T02:47:48.736Z,12.64
2023-05-19T02:50:50.604Z,12.63
2023-05-19T02:53:52.412Z,12.61
2023-05-19T02:56:54.174Z,12.61
2023-05-19T02:59:56.282Z,12.60
2023-05-19T03:03:02.748Z,12.56
2023-05-19T03:06:05.088Z,12.50
2023-05-19T03:09:07.314Z,12.37
2023-05-19T03:12:09.333Z,12.35
2023-05-19T03:15:13.154Z,12.47
2023-05-19T03:18:15.029Z,12.45
2023-05-19T03:21:16.880Z,12.49
2023-05-19T03:24:18.756Z,12.48
2023-05-19T03:27:20.666Z,12.59
2023-05-19T03:30:22.517Z,12.65
2023-05-19T03:33:24.491Z,12.67
2023-05-19T03:36:32.008Z,12.65
2023-05-19T03:39:33.834Z,12.73
2023-05-19T03:42:35.711Z,12.71
2023-05-19T03:45:37.511Z,12.69
2023-05-19T03:48:39.272Z,12.52
2023-05-19T03:51:41.153Z,12.50
2023-05-19T03:54:43.215Z,12.57
2023-05-19T03:57:45.032Z,12.54
2023-05-19T04:00:47.655Z,12.49
2023-05-19T04:03:49.521Z,12.57
2023-05-19T04:06:51.310Z,12.51
2023-05-19T04:09:53.049Z,12.55
2023-05-19T04:12:54.813Z,12.65
2023-05-19T04:15:56.663Z,12.73
2023-05-19T04:18:58.617Z,12.98
2023-05-19T04:22:00.386Z,12.98
2023-05-19T04:25:03.942Z,13.10
2023-05-19T04:28:06.145Z,13.25
2023-05-19T04:31:11.172Z,13.25
2023-05-19T04:34:13.072Z,13.73
2023-05-19T04:37:18.002Z,14.17
2023-05-19T04:40:21.170Z,15.24
2023-05-19T04:43:22.909Z,15.84
2023-05-19T04:46:26.003Z,15.67
2023-05-19T04:49:27.811Z,15.96
2023-05-19T04:52:29.571Z,15.74
2023-05-19T04:55:31.546Z,15.67
2023-05-19T04:58:33.344Z,15.72
2023-05-19T05:01:35.281Z,15.72
2023-05-19T05:04:37.502Z,15.65
2023-05-19T05:07:39.344Z,16.07
2023-05-19T05:10:41.526Z,16.08
2023-05-19T05:13:43.866Z,16.44
2023-05-19T05:16:46.529Z,16.51
2023-05-19T05:19:48.571Z,16.98
2023-05-19T05:22:50.871Z,16.82
2023-05-19T05:25:53.005Z,16.87
2023-05-19T05:28:54.788Z,17.00
2023-05-19T05:31:56.620Z,16.55
2023-05-19T05:34:58.947Z,17.23
2023-05-19T05:38:01.809Z,17.49
2023-05-19T05:41:03.720Z,17.50
2023-05-19T05:44:05.595Z,17.81
2023-05-19T05:47:08.052Z,17.58
2023-05-19T05:50:10.832Z,17.68
2023-05-19T05:53:20.711Z,17.75
2023-05-19T05:56:22.785Z,17.49
2023-05-19T05:59:24.997Z,17.15
2023-05-19T06:02:28.305Z,16.63
2023-05-19T06:05:30.445Z,16.33
2023-05-19T06:08:32.334Z,16.32
2023-05-19T06:11:34.225Z,16.44
2023-05-19T06:14:36.381Z,16.84
2023-05-19T06:17:38.297Z,16.57
2023-05-19T06:20:40.137Z,16.86
2023-05-19T06:23:41.898Z,17.27
2023-05-19T06:26:43.851Z,16.89
2023-05-19T06:29:45.786Z,16.98
2023-05-19T06:32:47.765Z,17.19
2023-05-19T06:35:49.570Z,16.85
2023-05-19T06:38:51.809Z,17.11
2023-05-19T06:41:53.674Z,16.98
2023-05-19T06:44:55.846Z,17.38
2023-05-19T06:47:58.507Z,17.96
2023-05-19T06:51:00.688Z,17.68
2023-05-19T06:54:02.990Z,17.91
2023-05-19T06:57:05.053Z,18.21
2023-05-19T07:00:10.568Z,18.84
2023-05-19T07:03:12.450Z,19.06
2023-05-19T07:06:14.556Z,18.75
2023-05-19T07:09:16.362Z,19.41
2023-05-19T07:12:18.739Z,19.45
2023-05-19T07:15:20.582Z,18.55
2023-05-19T07:18:22.598Z,19.25
2023-05-19T07:21:24.411Z,19.26
2023-05-19T07:24:27.557Z,19.19
2023-05-19T07:27:29.350Z,19.52
2023-05-19T07:30:31.361Z,19.03
2023-05-19T07:33:33.432Z,19.54
2023-05-19T07:36:35.355Z,19.19
2023-05-19T07:39:37.193Z,19.59
2023-05-19T07:42:38.999Z,19.43
2023-05-19T07:45:40.837Z,19.60
2023-05-19T07:48:42.678Z,19.84
2023-05-19T07:51:44.513Z,20.19
2023-05-19T07:54:46.513Z,19.22
2023-05-19T07:57:49.467Z,19.05
2023-05-19T08:00:51.479Z,20.05
2023-05-19T08:03:53.397Z,19.96
2023-05-19T08:06:55.240Z,20.50
2023-05-19T08:09:57.223Z,20.55
2023-05-19T08:12:59.046Z,20.70
2023-05-19T08:16:00.946Z,20.83
2023-05-19T08:19:05.424Z,20.55
2023-05-19T08:22:07.284Z,19.78
2023-05-19T08:25:09.588Z,19.59
2023-05-19T08:28:11.439Z,20.50
2023-05-19T08:31:13.195Z,20.17
2023-05-19T08:34:15.019Z,20.63
2023-05-19T08:37:16.827Z,20.79
2023-05-19T08:40:18.774Z,20.99
2023-05-19T08:43:20.577Z,21.18
2023-05-19T08:46:25.331Z,21.25
2023-05-19T08:49:30.449Z,21.06
2023-05-19T08:52:53.081Z,20.86
2023-05-19T08:56:11.070Z,21.61
2023-05-19T08:59:16.148Z,21.80
2023-05-19T09:02:18.938Z,21.94
2023-05-19T09:05:21.068Z,21.08
2023-05-19T09:08:23.043Z,22.11
2023-05-19T09:11:24.794Z,22.19
2023-05-19T09:14:26.805Z,22.12
2023-05-19T09:17:28.636Z,22.18
2023-05-19T09:20:30.839Z,22.39
2023-05-19T09:23:36.183Z,22.59
2023-05-19T09:26:40.297Z,20.93
2023-05-19T09:29:43.064Z,21.53
2023-05-19T09:32:45.596Z,21.94
2023-05-19T09:35:47.516Z,22.04
2023-05-19T09:38:49.415Z,21.86
2023-05-19T09:41:53.813Z,22.38
2023-05-19T09:45:05.062Z,22.85
2023-05-19T09:48:07.300Z,22.95
2023-05-19T09:51:12.294Z,23.15
2023-05-19T09:54:17.351Z,23.25
2023-05-19T09:57:27.031Z,23.62
2023-05-19T10:00:29.556Z,23.68
2023-05-19T10:03:33.044Z,23.93
2023-05-19T10:06:34.948Z,24.15
2023-05-19T10:09:38.123Z,24.26
2023-05-19T10:12:40.682Z,24.25
2023-05-19T10:15:57.413Z,24.01
2023-05-19T10:19:01.924Z,24.42
2023-05-19T10:22:03.848Z,23.93
2023-05-19T10:25:06.900Z,23.28
2023-05-19T10:28:14.248Z,23.09
2023-05-19T10:31:18.689Z,23.66
2023-05-19T10:34:33.394Z,22.90
2023-05-19T10:37:46.821Z,22.68
2023-05-19T10:40:52.139Z,22.59
2023-05-19T10:44:18.205Z,23.83
2023-05-19T10:47:26.480Z,23.28
2023-05-19T10:50:36.170Z,23.64
2023-05-19T10:53:41.845Z,24.59
2023-05-19T10:56:47.312Z,24.28
2023-05-19T10:59:49.965Z,24.21
2023-05-19T11:02:56.331Z,24.54
2023-05-19T11:06:17.555Z,24.34
2023-05-19T11:09:20.984Z,23.91
2023-05-19T11:12:27.970Z,23.02
2023-05-19T11:15:29.857Z,23.79
2023-05-19T11:18:32.116Z,24.28
2023-05-19T11:21:55.092Z,24.69
2023-05-19T11:24:57.452Z,24.58
2023-05-19T11:27:59.352Z,24.25
2023-05-19T11:31:02.342Z,24.44
2023-05-19T11:34:06.839Z,24.78
2023-05-19T11:37:09.218Z,24.86
2023-05-19T11:40:13.760Z,25.20
2023-05-19T11:43:16.786Z,25.07
2023-05-19T11:46:19.752Z,24.72
2023-05-19T11:49:21.600Z,24.64
2023-05-19T11:52:27.487Z,24.30
2023-05-19T11:55:29.487Z,23.42
2023-05-19T11:58:31.520Z,23.13
2023-05-19T12:01:34.543Z,24.17
2023-05-19T12:04:36.931Z,24.59
2023-05-19T12:07:39.554Z,24.85
2023-05-19T12:10:41.675Z,25.08
2023-05-19T12:13:44.310Z,25.13
2023-05-19T12:16:46.441Z,25.35
2023-05-19T12:19:49.215Z,25.10
2023-05-19T12:22:51.367Z,25.10
2023-05-19T12:25:53.322Z,24.54
2023-05-19T12:28:55.252Z,24.48
2023-05-19T12:31:57.094Z,24.41
2023-05-19T12:34:59.068Z,24.32
2023-05-19T12:38:04.986Z,24.65
2023-05-19T12:41:07.122Z,24.99
2023-05-19T12:44:16.049Z,25.30
2023-05-19T12:47:19.966Z,25.21
2023-05-19T12:50:21.830Z,25.14
2023-05-19T12:53:26.439Z,24.54
2023-05-19T12:56:28.380Z,24.90
2023-05-19T12:59:38.863Z,24.77
2023-05-19T13:02:57.746Z,25.08
2023-05-19T13:05:59.885Z,25.14
2023-05-19T13:09:01.676Z,25.43
2023-05-19T13:12:04.783Z,25.43
2023-05-19T13:15:08.213Z,25.55
2023-05-19T13:18:11.167Z,25.50
2023-05-19T13:21:13.461Z,25.27
2023-05-19T13:24:15.202Z,25.68
2023-05-19T13:27:17.170Z,25.36
2023-05-19T13:30:19.336Z,25.22
2023-05-19T13:33:21.595Z,24.43
2023-05-19T13:36:23.404Z,24.30
2023-05-19T13:39:25.181Z,24.80
2023-05-19T13:42:27.170Z,25.00
2023-05-19T13:45:29.161Z,25.06
2023-05-19T13:48:31.069Z,24.70
2023-05-19T13:51:33.043Z,24.52
2023-05-19T13:54:35.003Z,24.63
2023-05-19T13:57:37.047Z,25.07
2023-05-19T14:00:39.125Z,24.92
2023-05-19T14:03:41.055Z,25.32
2023-05-19T14:06:42.801Z,25.10
2023-05-19T14:09:44.564Z,24.57
2023-05-19T14:13:14.045Z,24.13
2023-05-19T14:16:09.130Z,24.06
2023-05-19T14:19:11.676Z,24.48
2023-05-19T14:22:13.933Z,24.88
2023-05-19T14:25:15.778Z,25.09
2023-05-19T14:28:17.484Z,24.98
2023-05-19T14:31:19.779Z,25.18
2023-05-19T14:34:21.922Z,25.06
2023-05-19T14:37:26.573Z,24.86
2023-05-19T14:40:28.912Z,24.92
2023-05-19T14:43:31.082Z,24.72
2023-05-19T14:46:33.275Z,24.73
2023-05-19T14:49:35.074Z,24.64
2023-05-19T14:52:37.002Z,24.60
2023-05-19T14:55:39.064Z,24.03
2023-05-19T14:58:41.542Z,24.33
2023-05-19T15:01:46.110Z,24.37
2023-05-19T15:04:49.044Z,23.68
2023-05-19T15:07:50.919Z,24.21
2023-05-19T15:10:52.741Z,24.24
2023-05-19T15:13:54.956Z,24.26
2023-05-19T15:16:57.051Z,24.32
2023-05-19T15:19:58.970Z,24.32
2023-05-19T15:23:01.391Z,24.00
2023-05-19T15:26:03.790Z,23.69
2023-05-19T15:29:05.595Z,23.52
2023-05-19T15:32:09.105Z,23.69
2023-05-19T15:35:11.743Z,23.82
2023-05-19T15:38:13.649Z,23.72
2023-05-19T15:41:15.836Z,23.74
2023-05-19T15:44:18.068Z,23.57
2023-05-19T15:47:21.005Z,23.61
2023-05-19T15:50:22.958Z,23.51
2023-05-19T15:53:25.380Z,23.54
2023-05-19T15:56:27.190Z,23.57
2023-05-19T15:59:29.026Z,23.58
2023-05-19T16:02:30.984Z,23.46
2023-05-19T16:05:33.258Z,23.29
2023-05-19T16:08:35.390Z,23.20
2023-05-19T16:11:37.299Z,23.16
2023-05-19T16:14:39.111Z,23.07
2023-05-19T16:17:41.225Z,22.99
2023-05-19T16:20:44.117Z,22.95
2023-05-19T16:23:45.954Z,22.85
2023-05-19T16:26:48.657Z,22.75
2023-05-19T16:29:50.559Z,22.67
2023-05-19T16:32:54.399Z,22.68
2023-05-19T16:35:58.556Z,22.62
2023-05-19T16:39:00.411Z,22.62
2023-05-19T16:42:02.307Z,22.50
2023-05-19T16:45:04.534Z,22.35
2023-05-19T16:48:06.520Z,22.30
2023-05-19T16:51:08.307Z,22.06
2023-05-19T16:54:10.079Z,22.02
2023-05-19T16:57:14.893Z,21.99
2023-05-19T17:00:16.913Z,21.82
2023-05-19T17:03:19.056Z,21.68
2023-05-19T17:06:20.985Z,21.68
2023-05-19T17:09:25.352Z,21.52
2023-05-19T17:12:27.216Z,21.42
2023-05-19T17:15:28.946Z,21.32
2023-05-19T17:18:31.436Z,21.20
2023-05-19T17:21:33.699Z,21.10
2023-05-19T17:24:35.822Z,21.08
2023-05-19T17:27:37.790Z,21.05
2023-05-19T17:30:40.094Z,20.97
2023-05-19T17:33:42.076Z,20.76
2023-05-19T17:36:43.836Z,20.69
2023-05-19T17:39:45.605Z,20.65
2023-05-19T17:42:47.394Z,20.51
2023-05-19T17:45:49.189Z,20.34
2023-05-19T17:48:51.275Z,20.19
2023-05-19T17:51:53.463Z,20.13
2023-05-19T17:54:55.655Z,19.99
2023-05-19T17:57:57.810Z,19.92
2023-05-19T18:00:59.873Z,19.83
2023-05-19T18:04:02.434Z,19.73
2023-05-19T18:07:04.750Z,19.12
2023-05-19T18:10:07.356Z,18.36
2023-05-19T18:13:10.970Z,18.59
2023-05-19T18:16:13.174Z,18.64
2023-05-19T18:19:14.977Z,18.69
2023-05-19T18:22:17.693Z,18.80
2023-05-19T18:25:20.901Z,18.82
2023-05-19T18:28:23.610Z,18.73
2023-05-19T18:31:25.431Z,18.77
2023-05-19T18:34:27.723Z,18.73
2023-05-19T18:37:29.487Z,18.65
2023-05-19T18:40:31.413Z,18.58
2023-05-19T18:43:34.384Z,18.58
2023-05-19T18:46:36.221Z,18.47
2023-05-19T18:49:38.219Z,18.36
2023-05-19T18:52:41.102Z,18.34
2023-05-19T18:55:43.973Z,18.22
2023-05-19T18:58:46.144Z,18.12
2023-05-19T19:01:51.254Z,18.07
2023-05-19T19:04:53.346Z,17.86
2023-05-19T19:07:55.354Z,17.91
2023-05-19T19:11:00.239Z,17.88
2023-05-19T19:14:02.312Z,17.84
2023-05-19T19:17:04.391Z,17.78
2023-05-19T19:20:08.122Z,17.69
2023-05-19T19:23:09.970Z,17.57
2023-05-19T19:26:11.974Z,17.52
2023-05-19T19:29:17.031Z,17.39
2023-05-19T19:32:18.964Z,17.35
2023-05-19T19:35:20.944Z,17.29
2023-05-19T19:38:22.693Z,17.21
2023-05-19T19:41:26.220Z,17.19
2023-05-19T19:44:27.924Z,17.08
2023-05-19T19:47:29.902Z,16.96
2023-05-19T19:50:32.893Z,16.84
2023-05-19T19:53:34.781Z,16.72
2023-05-19T19:56:36.780Z,16.74
2023-05-19T19:59:38.538Z,16.79
2023-05-19T20:02:51.703Z,16.62
2023-05-19T20:06:03.073Z,16.82
2023-05-19T20:09:05.154Z,16.60
2023-05-19T20:12:07.265Z,16.77
2023-05-19T20:15:09.594Z,16.76
2023-05-19T20:18:11.775Z,16.74
2023-05-19T20:21:13.742Z,16.71
2023-05-19T20:24:15.449Z,16.67
2023-05-19T20:27:17.479Z,16.61
2023-05-19T20:30:19.576Z,16.61
2023-05-19T20:33:21.584Z,16.59
2023-05-19T20:36:23.386Z,16.52
2023-05-19T20:39:25.157Z,16.50
2023-05-19T20:42:26.949Z,16.45
2023-05-19T20:45:28.772Z,16.35
2023-05-19T20:48:30.805Z,16.27
2023-05-19T20:51:32.746Z,16.08
2023-05-19T20:54:34.560Z,16.11
2023-05-19T20:57:36.392Z,16.09
2023-05-19T21:00:38.195Z,16.16
2023-05-19T21:03:40.033Z,16.19
2023-05-19T21:06:41.895Z,16.15
2023-05-19T21:09:46.614Z,16.21
2023-05-19T21:12:48.426Z,16.24
2023-05-19T21:15:50.182Z,16.19
2023-05-19T21:18:51.986Z,16.11
2023-05-19T21:21:53.855Z,16.01
2023-05-19T21:24:55.826Z,16.02
2023-05-19T21:28:01.090Z,15.85
2023-05-19T21:31:05.449Z,15.94
2023-05-19T21:34:07.865Z,15.92
2023-05-19T21:37:09.875Z,15.97
2023-05-19T21:40:12.367Z,16.03
2023-05-19T21:43:14.460Z,16.06
2023-05-19T21:46:16.207Z,16.07
2023-05-19T21:49:18.080Z,16.11
2023-05-19T21:52:19.999Z,16.09
2023-05-19T21:55:22.130Z,15.90
2023-05-19T21:58:24.189Z,15.75
2023-05-19T22:01:26.483Z,15.63
2023-05-19T22:04:31.522Z,15.64
2023-05-19T22:07:33.458Z,15.69
2023-05-19T22:10:37.244Z,15.71
2023-05-19T22:13:41.180Z,15.52
2023-05-19T22:16:43.206Z,15.39
2023-05-19T22:19:45.797Z,15.25
2023-05-19T22:22:47.502Z,15.26
2023-05-19T22:25:49.357Z,15.15
2023-05-19T22:28:51.158Z,15.13
2023-05-19T22:31:52.991Z,15.13
2023-05-19T22:34:54.911Z,15.16
2023-05-19T22:37:56.808Z,15.18
2023-05-19T22:40:58.657Z,15.14
2023-05-19T22:44:00.679Z,15.14
2023-05-19T22:47:03.312Z,15.05
2023-05-19T22:50:05.653Z,15.04
2023-05-19T22:53:07.518Z,14.86
2023-05-19T22:56:09.277Z,15.01
2023-05-19T22:59:14.405Z,14.76
2023-05-19T23:02:16.167Z,14.61
2023-05-19T23:05:17.965Z,14.67
2023-05-19T23:08:19.700Z,14.61
2023-05-19T23:11:22.007Z,14.77
2023-05-19T23:14:25.861Z,14.85
2023-05-19T23:17:27.689Z,14.86
2023-05-19T23:20:29.600Z,14.93
2023-05-19T23:23:31.360Z,14.96
2023-05-19T23:26:33.189Z,14.99
2023-05-19T23:29:35.046Z,15.01
2023-05-19T23:32:36.883Z,14.82
2023-05-19T23:35:39.587Z,14.71
2023-05-19T23:38:41.407Z,14.62
2023-05-19T23:41:43.174Z,14.36
2023-05-19T23:44:45.041Z,14.30
2023-05-19T23:47:46.880Z,14.03
2023-05-19T23:50:48.691Z,13.93
2023-05-19T23:53:50.445Z,14.12
2023-05-19T23:56:52.367Z,14.09
2023-05-19T23:59:54.098Z,14.20
